Portada
METAR-TAF:

METAR-TAF

Aeroports :

Qaisumah, Aràbia Saudita

latitud: 28-19N, longitud: 046-07E, altitud: 358 m

Observació

L'informe es va fer fa 39 minuts, a les 18:00 UTC
Vent calma
Temperatura 10°C
Humitat 53%
Pressió 1023 hPa
Visibilitat 10 km o més
sense núvols per sota de 1500 mi sense presència de cumulonimbus.

METAR: OEPA 241800Z 00000KT CAVOK 10/01 Q1023 NOSIG

Hora: 21:39 (18:39 UTC)

Pronòstic

L'informe es va fer fa 7 hores i 39 minuts, a les 11:00 UTC
Pronòstic vàlid del 24 a les 12 UTC al 25 a les 18 UTC
Vent 10 kt del Est/Nord-Est
Visibilitat: 8000 m
Evolucionant progressivament
l' 24 a les 18 UTC al 24 a les 20 UTC
Vent 3 kt amb direcció variable
Visibilitat 10 km o més
sense núvols per sota de 1500 mi sense presència de cumulonimbus.

TAF: OEPA 241100Z 2412/2518 07010KT 8000 NSC BECMG 2418/2420 VRB03KT CAVOK

Observacions i pronòstics meteorològics de més de 4000 aeroports (METAR i TAF).

Les estacions disponibles són els punts grocs i vermells al mapa.

Posi el ratolí al punt desitjat per veure el nom de l'estació.

Feu clic per veure les observacions i els pronòstics meteorològics.

Per canviar el mapa: feu clic els botons verds amb una creu de color negre per apropar; al botó verd amb un guió per allunyar la imatge; o en les fletxes verdes per a mapes adjacents.


METAR-TAF: